Time;durP1;ratioP1;P1;durP2;ratioP2;P2;SDS_P1;SDS_P2;PMS_P1;PMS_P2;Temp;Humidity;BMP_temperature;BMP_pressure;BME280_temperature;BME280_humidity;BME280_pressure;Samples;Min_cycle;Max_cycle;Signal;HPM_P1;HPM_P2
2022/03/25 00:01:20;;;;;;;26.40;11.73;;;;;;;5.77;49.22;100512.03;5114011;28;20086;-68
2022/03/25 00:03:49;;;;;;;28.85;13.07;;;;;;;5.93;48.64;100510.84;5113903;28;20046;-68
2022/03/25 00:06:21;;;;;;;32.70;12.57;;;;;;;5.85;48.71;100517.38;5114051;28;20160;-68
2022/03/25 00:08:50;;;;;;;31.73;13.35;;;;;;;5.66;49.17;100509.97;5114357;28;20055;-68
2022/03/25 00:11:19;;;;;;;20.13;10.07;;;;;;;5.75;48.84;100507.72;5114287;28;20122;-68
2022/03/25 00:13:48;;;;;;;26.80;11.13;;;;;;;5.80;48.69;100509.59;5113880;28;20150;-68
2022/03/25 00:16:17;;;;;;;28.38;11.48;;;;;;;5.75;48.47;100503.53;5114502;28;20718;-68
2022/03/25 00:18:46;;;;;;;26.88;11.27;;;;;;;5.74;48.69;100506.84;5114181;28;20443;-68
2022/03/25 00:21:15;;;;;;;27.07;11.30;;;;;;;5.67;49.39;100499.00;5113777;28;20039;-68
2022/03/25 00:23:45;;;;;;;24.70;10.45;;;;;;;5.51;49.54;100500.19;5114150;28;20525;-68
2022/03/25 00:26:14;;;;;;;24.75;10.90;;;;;;;5.32;50.20;100501.28;5113839;28;20126;-68
2022/03/25 00:28:43;;;;;;;25.33;11.77;;;;;;;5.53;49.27;100502.78;5113780;28;20055;-68
2022/03/25 00:31:12;;;;;;;26.45;11.43;;;;;;;5.55;49.05;100501.13;5113625;28;20043;-68
2022/03/25 00:33:42;;;;;;;29.43;13.93;;;;;;;5.30;50.29;100494.44;5112716;28;20051;-68
2022/03/25 00:36:11;;;;;;;24.10;11.75;;;;;;;5.11;49.67;100498.00;5114344;28;20052;-68
2022/03/25 00:38:40;;;;;;;29.83;12.43;;;;;;;4.96;50.02;100507.63;5114049;28;20067;-68
2022/03/25 00:41:12;;;;;;;23.03;9.23;;;;;;;5.09;50.46;100502.16;5113641;28;20047;-68
2022/03/25 00:43:42;;;;;;;26.67;12.00;;;;;;;5.16;49.90;100501.56;5113688;28;20055;-68
2022/03/25 00:46:12;;;;;;;27.60;11.10;;;;;;;4.98;49.88;100506.00;5113672;28;20051;-68
2022/03/25 00:48:42;;;;;;;23.15;11.57;;;;;;;5.00;50.38;100503.50;5113982;28;20063;-68
2022/03/25 00:51:11;;;;;;;23.20;10.38;;;;;;;4.98;50.79;100503.47;5112449;28;20117;-68
2022/03/25 00:53:40;;;;;;;25.25;11.45;;;;;;;4.96;50.88;100504.22;5117415;28;20481;-68
2022/03/25 00:56:12;;;;;;;;;;;;;;;4.98;50.28;100506.00;5117888;28;20098;-67
2022/03/25 00:58:42;;;;;;;21.50;10.35;;;;;;;5.01;50.88;100516.22;5117466;28;19926;-68
2022/03/25 01:01:11;;;;;;;23.58;10.93;;;;;;;4.98;50.33;100513.59;5116170;28;20044;-68
2022/03/25 01:03:40;;;;;;;21.77;11.15;;;;;;;5.05;50.64;100512.13;5117700;27;20190;-68
2022/03/25 01:06:10;;;;;;;26.95;12.05;;;;;;;5.01;50.55;100510.28;5116397;28;20040;-68
2022/03/25 01:08:41;;;;;;;28.60;12.98;;;;;;;5.04;50.95;100511.25;5117407;28;20097;-68
2022/03/25 01:11:12;;;;;;;27.63;13.23;;;;;;;5.11;50.70;100503.06;5117250;27;20114;-68
2022/03/25 01:13:42;;;;;;;30.20;13.43;;;;;;;4.98;50.73;100507.66;5117164;28;20363;-68
2022/03/25 01:16:11;;;;;;;25.50;12.43;;;;;;;4.86;50.95;100514.81;5116943;28;20090;-68
2022/03/25 01:18:40;;;;;;;32.17;13.03;;;;;;;4.75;51.09;100511.91;5117054;27;20056;-68
2022/03/25 01:21:09;;;;;;;27.73;10.30;;;;;;;4.67;52.26;100508.25;5117275;28;20043;-68
2022/03/25 01:23:38;;;;;;;28.00;12.93;;;;;;;4.60;52.20;100513.88;5116974;28;20108;-68
2022/03/25 01:26:08;;;;;;;31.80;13.02;;;;;;;4.47;52.10;100521.81;5117104;27;20063;-68
2022/03/25 01:28:39;;;;;;;30.00;13.20;;;;;;;4.38;52.57;100513.91;5117210;28;20044;-68
2022/03/25 01:31:10;;;;;;;31.05;12.32;;;;;;;4.18;52.93;100512.28;5115413;28;20043;-67
2022/03/25 01:33:40;;;;;;;26.98;11.65;;;;;;;4.03;53.84;100515.13;5116781;28;20044;-67
2022/03/25 01:36:10;;;;;;;32.08;12.68;;;;;;;3.78;53.27;100513.28;5115610;28;20397;-67
2022/03/25 01:38:39;;;;;;;23.40;10.13;;;;;;;3.69;54.50;100512.94;5116617;28;20089;-67
2022/03/25 01:41:08;;;;;;;28.90;12.40;;;;;;;3.55;54.08;100513.19;5115661;28;20637;-67
2022/03/25 01:43:39;;;;;;;23.15;10.43;;;;;;;3.57;54.84;100511.56;5115368;28;20067;-67
2022/03/25 01:46:09;;;;;;;30.98;12.35;;;;;;;3.64;54.50;100509.34;5116798;28;20040;-67
2022/03/25 01:48:40;;;;;;;29.65;12.13;;;;;;;3.61;54.56;100508.34;5116833;28;20055;-68
2022/03/25 01:51:10;;;;;;;26.30;12.47;;;;;;;3.74;54.26;100513.94;5116425;28;20122;-68
2022/03/25 01:53:39;;;;;;;30.67;13.45;;;;;;;3.72;54.46;100517.25;5116692;28;20046;-68
2022/03/25 01:56:12;;;;;;;32.92;14.77;;;;;;;3.51;54.28;100514.69;5115205;28;20129;-67
2022/03/25 01:58:43;;;;;;;34.88;14.07;;;;;;;3.26;54.88;100520.38;5115425;28;20066;-67
2022/03/25 02:01:12;;;;;;;36.25;14.38;;;;;;;3.16;55.82;100517.44;5116618;28;20405;-67
2022/03/25 02:03:41;;;;;;;35.72;14.18;;;;;;;3.13;56.36;100522.34;5115222;28;20035;-67
2022/03/25 02:06:12;;;;;;;28.42;13.13;;;;;;;3.21;56.06;100515.97;5116197;28;20059;-67
2022/03/25 02:08:41;;;;;;;30.10;12.57;;;;;;;3.31;55.96;100528.19;5116271;28;20443;-67
2022/03/25 02:11:11;;;;;;;30.25;13.10;;;;;;;3.44;55.32;100525.34;5114868;28;20050;-68
2022/03/25 02:13:40;;;;;;;34.20;14.02;;;;;;;3.35;55.80;100530.00;5114827;28;20075;-68
2022/03/25 02:16:10;;;;;;;21.90;10.20;;;;;;;3.39;55.49;100524.28;5115979;28;20104;-67
2022/03/25 02:18:40;;;;;;;33.80;13.20;;;;;;;3.35;56.38;100522.44;5114992;28;20497;-67
2022/03/25 02:21:10;;;;;;;27.35;13.15;;;;;;;3.17;55.96;100529.22;5114705;28;20126;-67
2022/03/25 02:23:41;;;;;;;29.67;12.73;;;;;;;3.09;56.24;100530.59;5115759;27;20044;-67
2022/03/25 02:26:11;;;;;;;29.13;12.15;;;;;;;3.24;56.72;100531.22;5114624;28;20493;-68
2022/03/25 02:28:41;;;;;;;30.48;12.25;;;;;;;3.14;56.01;100534.16;5114519;28;20072;-67
2022/03/25 02:31:10;;;;;;;27.67;13.07;;;;;;;2.98;56.90;100536.81;5114172;28;20075;-67
2022/03/25 02:33:39;;;;;;;30.27;12.80;;;;;;;3.03;56.32;100537.88;5115911;28;20126;-67
2022/03/25 02:36:09;;;;;;;33.87;13.77;;;;;;;3.05;56.75;100538.78;5114371;28;20040;-67
2022/03/25 02:38:38;;;;;;;28.80;11.48;;;;;;;3.09;56.23;100531.47;5115868;28;20280;-67
2022/03/25 02:41:08;;;;;;;33.47;14.23;;;;;;;3.21;56.60;100542.06;5114278;28;20048;-67
2022/03/25 02:43:37;;;;;;;28.48;11.82;;;;;;;3.07;56.86;100538.06;5115368;27;20044;-67
2022/03/25 02:46:07;;;;;;;28.50;12.30;;;;;;;2.88;56.75;100542.28;5114200;28;20048;-67
2022/03/25 02:48:37;;;;;;;26.27;12.20;;;;;;;2.80;56.88;100546.13;5115266;28;20058;-67
2022/03/25 02:51:06;;;;;;;27.63;11.88;;;;;;;2.79;57.03;100552.81;5114007;28;20444;-67
2022/03/25 02:53:35;;;;;;;29.10;12.02;;;;;;;2.99;56.62;100546.13;5115149;28;20047;-67
2022/03/25 02:56:05;;;;;;;28.23;12.55;;;;;;;2.90;57.54;100548.25;5115083;28;20050;-67
2022/03/25 02:58:35;;;;;;;32.67;11.63;;;;;;;2.86;57.85;100552.28;5113902;28;20156;-67
2022/03/25 03:01:06;;;;;;;30.40;12.88;;;;;;;2.86;57.27;100551.41;5115372;28;20409;-67
2022/03/25 03:03:35;;;;;;;44.55;15.93;;;;;;;2.67;57.55;100545.56;5114981;28;20047;-67
2022/03/25 03:06:05;;;;;;;27.57;10.70;;;;;;;2.69;57.95;100543.97;5115273;28;20457;-67
2022/03/25 03:08:36;;;;;;;28.42;13.20;;;;;;;2.80;58.09;100551.16;5114902;28;20096;-67
2022/03/25 03:11:06;;;;;;;37.05;13.57;;;;;;;2.90;58.00;100548.25;5114886;28;20044;-67
2022/03/25 03:13:36;;;;;;;27.52;12.57;;;;;;;2.78;58.36;100547.72;5115192;28;20469;-67
2022/03/25 03:16:06;;;;;;;36.60;14.32;;;;;;;2.71;57.64;100547.41;5114495;28;20051;-67
2022/03/25 03:18:35;;;;;;;29.67;11.82;;;;;;;2.72;57.34;100544.13;5114998;28;20047;-67
2022/03/25 03:21:04;;;;;;;22.10;11.77;;;;;;;2.52;57.31;100539.84;5114645;28;20050;-67
2022/03/25 03:23:33;;;;;;;33.17;12.23;;;;;;;2.43;57.67;100539.44;5114574;28;20039;-67
2022/03/25 03:26:02;;;;;;;29.53;12.23;;;;;;;2.56;57.73;100544.25;5114634;28;20501;-67
2022/03/25 03:28:31;;;;;;;28.17;11.77;;;;;;;2.53;57.77;100544.09;5114542;28;20542;-68
2022/03/25 03:31:01;;;;;;;28.80;11.70;;;;;;;2.60;57.50;100547.75;5114213;28;20048;-67
2022/03/25 03:33:31;;;;;;;23.85;10.68;;;;;;;2.54;57.81;100548.31;5114535;28;20052;-67
2022/03/25 03:36:00;;;;;;;23.35;10.82;;;;;;;2.45;57.77;100547.91;5114499;28;20039;-67
2022/03/25 03:38:30;;;;;;;25.10;10.23;;;;;;;2.38;57.89;100540.88;5114417;28;20065;-67
2022/03/25 03:40:59;;;;;;;23.73;10.10;;;;;;;2.38;57.78;100545.91;5114308;28;20039;-67
2022/03/25 03:43:31;;;;;;;21.52;10.07;;;;;;;2.48;57.96;100548.06;5114517;28;20131;-67
2022/03/25 03:46:01;;;;;;;26.20;10.35;;;;;;;2.42;57.73;100550.31;5114283;28;20051;-67
2022/03/25 03:48:30;;;;;;;22.13;9.60;;;;;;;2.32;58.10;100550.69;5114612;28;20047;-67
2022/03/25 03:50:59;;;;;;;23.67;9.82;;;;;;;2.31;58.56;100553.13;5114111;28;20067;-67
2022/03/25 03:53:28;;;;;;;21.05;7.90;;;;;;;2.40;58.67;100556.91;5114513;28;20035;-67
2022/03/25 03:55:57;;;;;;;23.83;10.43;;;;;;;2.41;58.04;100551.09;5114163;28;20043;-67
2022/03/25 03:58:36;;;;;;;20.00;9.40;;;;;;;2.48;58.13;100558.13;5114095;28;20481;-67
2022/03/25 04:01:07;;;;;;;19.43;9.20;;;;;;;2.37;58.21;100556.81;5114001;28;20054;-67
2022/03/25 04:03:36;;;;;;;26.65;10.77;;;;;;;2.18;58.60;100559.25;5114272;28;20439;-67
2022/03/25 04:06:06;;;;;;;24.93;10.00;;;;;;;2.17;58.82;100557.53;5113930;28;20088;-67
2022/03/25 04:08:36;;;;;;;23.13;10.20;;;;;;;2.08;59.23;100542.00;5114057;28;20067;-67
2022/03/25 04:11:05;;;;;;;27.05;9.85;;;;;;;2.16;58.89;100557.47;5114260;28;20090;-67
2022/03/25 04:13:34;;;;;;;22.30;10.50;;;;;;;2.22;58.59;100560.25;5113895;28;20405;-67
2022/03/25 04:16:03;;;;;;;25.83;9.90;;;;;;;2.23;58.69;100555.28;5113928;28;20043;-67
2022/03/25 04:18:34;;;;;;;24.77;10.27;;;;;;;2.22;59.18;100557.72;5113888;28;20048;-67
2022/03/25 04:21:03;;;;;;;21.88;9.30;;;;;;;2.19;59.49;100557.59;5114455;28;20058;-67
2022/03/25 04:23:32;;;;;;;23.90;10.15;;;;;;;1.87;59.46;100523.38;5114094;28;20075;-67
2022/03/25 04:26:02;;;;;;;23.92;9.95;;;;;;;2.02;59.29;100559.31;5113866;28;20054;-67
2022/03/25 04:28:31;;;;;;;22.90;9.50;;;;;;;2.01;58.88;100552.56;5117321;28;20150;-67
2022/03/25 04:31:03;;;;;;;25.92;9.23;;;;;;;2.03;58.88;100561.06;5117995;28;20043;-67
2022/03/25 04:33:35;;;;;;;23.63;9.50;;;;;;;2.01;59.04;100560.13;5117840;28;20044;-67
2022/03/25 04:36:04;;;;;;;22.92;9.10;;;;;;;1.99;59.60;100559.19;5117930;28;20043;-67
2022/03/25 04:38:33;;;;;;;19.30;8.73;;;;;;;2.02;59.39;100559.31;5118996;28;20043;-67
2022/03/25 04:41:02;;;;;;;24.15;8.32;;;;;;;1.94;59.72;100560.63;5118039;28;20062;-67
2022/03/25 04:43:32;;;;;;;19.98;8.90;;;;;;;2.01;59.69;100557.59;5117927;28;20477;-67
2022/03/25 04:46:00;;;;;;;28.40;9.93;;;;;;;2.07;59.40;100562.91;5117650;28;20066;-67
2022/03/25 04:48:29;;;;;;;26.00;10.38;;;;;;;2.24;59.58;100561.19;5118046;27;20040;-67
2022/03/25 04:51:00;;;;;;;21.43;9.20;;;;;;;2.27;59.50;100567.25;5117884;28;20043;-67
2022/03/25 04:53:29;;;;;;;24.70;9.52;;;;;;;2.16;59.61;100563.34;5117650;27;20047;-67
2022/03/25 04:55:58;;;;;;;26.38;10.27;;;;;;;2.10;59.59;100553.00;5117848;28;20497;-67
2022/03/25 04:58:27;;;;;;;27.60;9.60;;;;;;;2.23;59.45;100560.31;5117502;28;20039;-67
2022/03/25 05:00:56;;;;;;;21.63;9.95;;;;;;;2.14;59.58;100564.94;5117728;28;20040;-67
2022/03/25 05:03:25;;;;;;;26.73;10.93;;;;;;;2.27;58.89;100559.69;5117317;28;20092;-67
2022/03/25 05:05:54;;;;;;;19.13;7.60;;;;;;;2.36;59.09;100554.19;5117378;28;20044;-67
2022/03/25 05:08:24;;;;;;;27.80;11.27;;;;;;;2.36;59.09;100570.16;5117307;28;20064;-67
2022/03/25 05:10:53;;;;;;;30.40;12.13;;;;;;;2.35;59.01;100575.16;5118026;28;20092;-67
2022/03/25 05:13:29;;;;;;;24.45;10.43;;;;;;;2.31;59.40;100574.13;5117238;28;20126;-67
2022/03/25 05:15:58;;;;;;;28.58;11.30;;;;;;;2.36;58.75;100580.25;5117182;28;20036;-67
2022/03/25 05:18:27;;;;;;;22.02;9.13;;;;;;;2.42;59.40;100573.00;5117376;28;20493;-67
2022/03/25 05:20:56;;;;;;;25.38;9.55;;;;;;;2.56;59.32;100579.50;5117121;28;20075;-67
2022/03/25 05:23:27;;;;;;;24.70;9.48;;;;;;;2.59;58.86;100577.09;5116914;28;20127;-67
2022/03/25 05:25:55;;;;;;;18.83;8.27;;;;;;;2.63;59.25;100581.50;5117006;28;20051;-67
2022/03/25 05:28:28;;;;;;;18.00;7.72;;;;;;;2.76;59.53;100584.59;5116992;28;20046;-67
2022/03/25 05:30:57;;;;;;;16.55;8.30;;;;;;;2.99;58.88;100583.94;5116615;28;20051;-67
2022/03/25 05:33:26;;;;;;;19.38;8.10;;;;;;;3.15;58.84;100586.31;5116778;28;20082;-67
2022/03/25 05:35:55;;;;;;;16.63;7.63;;;;;;;3.21;58.30;100586.59;5116762;28;20239;-67
2022/03/25 05:38:26;;;;;;;20.17;8.02;;;;;;;3.36;57.97;100585.56;5117063;28;20118;-67
2022/03/25 05:40:54;;;;;;;24.35;9.45;;;;;;;3.73;57.03;100580.41;5116983;28;20053;-67
2022/03/25 05:43:23;;;;;;;18.70;8.93;;;;;;;4.01;57.13;100577.31;5116446;28;20045;-67
2022/03/25 05:45:52;;;;;;;19.58;9.63;;;;;;;4.16;56.48;100575.38;5116825;28;20397;-67
2022/03/25 05:48:21;;;;;;;20.60;9.93;;;;;;;4.36;56.05;100576.16;5117329;28;20047;-67
2022/03/25 05:50:51;;;;;;;15.75;7.30;;;;;;;4.70;54.87;100585.06;5116454;28;20047;-67
2022/03/25 05:53:20;;;;;;;22.65;9.88;;;;;;;5.01;53.62;100584.53;5116317;28;20040;-68
2022/03/25 05:55:50;;;;;;;22.98;9.15;;;;;;;5.19;53.05;100582.63;5116372;28;20054;-67
2022/03/25 05:58:20;;;;;;;23.92;9.90;;;;;;;5.52;52.46;100592.22;5116303;28;20134;-67
2022/03/25 06:00:49;;;;;;;18.42;8.93;;;;;;;5.54;51.63;100581.31;5116275;28;20039;-68
2022/03/25 06:03:18;;;;;;;16.00;7.50;;;;;;;5.59;51.40;100578.94;5116011;28;20044;-67
2022/03/25 06:05:47;;;;;;;21.27;8.50;;;;;;;5.70;51.04;100582.69;5116384;28;20116;-67
2022/03/25 06:08:16;;;;;;;20.50;8.85;;;;;;;5.67;51.24;100577.50;5116120;28;20042;-67
2022/03/25 06:10:45;;;;;;;17.42;7.53;;;;;;;5.84;50.74;100581.47;5116523;28;20082;-67
2022/03/25 06:13:16;;;;;;;18.40;7.82;;;;;;;5.85;50.84;100578.16;5115892;28;20040;-67
2022/03/25 06:15:46;;;;;;;20.63;7.72;;;;;;;6.20;50.65;100582.66;5116319;28;20040;-67
2022/03/25 06:18:15;;;;;;;17.67;8.13;;;;;;;6.47;50.35;100588.59;5116148;28;20401;-68
2022/03/25 06:20:44;;;;;;;20.58;8.30;;;;;;;6.69;49.75;100580.78;5115820;28;20036;-68
2022/03/25 06:23:14;;;;;;;16.00;7.50;;;;;;;6.89;49.70;100588.09;5116174;28;20065;-68
2022/03/25 06:25:44;;;;;;;16.88;7.85;;;;;;;7.19;49.25;100576.28;5115690;28;20040;-68
2022/03/25 06:28:13;;;;;;;15.15;7.32;;;;;;;7.39;48.53;100582.72;5115710;28;20039;-68
2022/03/25 06:30:44;;;;;;;23.02;9.18;;;;;;;7.38;48.40;100581.03;5115748;28;20051;-69
2022/03/25 06:33:13;;;;;;;20.25;9.32;;;;;;;7.76;48.14;100572.69;5115546;28;20134;-68
2022/03/25 06:35:44;;;;;;;18.90;8.00;;;;;;;7.70;47.70;100574.22;5115605;28;20070;-68
2022/03/25 06:38:13;;;;;;;20.58;7.32;;;;;;;7.83;47.35;100579.66;5115515;28;20039;-68
2022/03/25 06:40:42;;;;;;;16.97;7.87;;;;;;;7.87;47.16;100578.88;5115456;28;20044;-68
2022/03/25 06:43:11;;;;;;;20.85;8.20;;;;;;;8.09;47.28;100586.22;5115644;28;20287;-68
2022/03/25 06:45:40;;;;;;;22.35;9.02;;;;;;;8.16;47.10;100586.38;5115637;28;20126;-68
2022/03/25 06:48:11;;;;;;;17.40;8.00;;;;;;;8.44;47.13;100586.22;5115659;28;20031;-68
2022/03/25 06:50:41;;;;;;;16.67;8.48;;;;;;;8.66;46.00;100591.78;5114599;28;20044;-68
2022/03/25 06:53:10;;;;;;;;;;;;;;;8.64;46.93;100592.56;5115931;28;20028;-68
2022/03/25 06:55:40;;;;;;;13.88;6.90;;;;;;;8.78;45.98;100588.66;5115133;28;19926;-68
2022/03/25 06:58:10;;;;;;;18.33;8.43;;;;;;;9.04;45.62;100590.03;5115192;28;20080;-67
2022/03/25 07:00:40;;;;;;;20.83;8.23;;;;;;;9.17;45.16;100584.34;5115074;28;20055;-68
2022/03/25 07:03:12;;;;;;;16.13;8.18;;;;;;;9.41;44.70;100582.25;5115054;28;20051;-68
2022/03/25 07:05:42;;;;;;;16.55;8.18;;;;;;;9.72;44.43;100582.78;5114755;28;20047;-68
2022/03/25 07:08:12;;;;;;;18.10;7.45;;;;;;;9.74;43.69;100588.81;5115524;28;20389;-68
2022/03/25 07:10:42;;;;;;;24.98;9.23;;;;;;;9.87;44.56;100583.91;5115266;28;20389;-68
2022/03/25 07:13:12;;;;;;;18.80;7.80;;;;;;;10.38;43.74;100589.00;5114842;28;20054;-68
2022/03/25 07:15:41;;;;;;;15.07;7.70;;;;;;;10.49;42.86;100584.03;5115110;28;20093;-68
2022/03/25 07:18:12;;;;;;;12.47;6.57;;;;;;;10.49;42.09;100590.00;5114984;28;20044;-68
2022/03/25 07:20:41;;;;;;;16.83;8.30;;;;;;;10.54;42.98;100584.97;5114719;28;20276;-68
2022/03/25 07:23:10;;;;;;;;;;;;;;;10.75;42.52;100587.81;5115045;28;20096;-68
2022/03/25 07:25:39;;;;;;;13.55;6.82;;;;;;;11.03;42.40;100591.56;5114672;28;19927;-68
2022/03/25 07:28:08;;;;;;;20.87;7.77;;;;;;;11.22;41.47;100594.38;5114649;28;20055;-68
2022/03/25 07:30:38;;;;;;;18.40;8.25;;;;;;;11.48;41.37;100584.41;5114523;28;20044;-68
2022/03/25 07:33:07;;;;;;;17.30;7.67;;;;;;;11.55;41.57;100588.75;5111559;28;20044;-68
2022/03/25 07:35:38;;;;;;;16.48;7.45;;;;;;;11.72;41.05;100586.38;5094627;28;20276;-67
2022/03/25 07:38:07;;;;;;;17.05;7.25;;;;;;;12.04;41.07;100590.91;5093968;28;20521;-67
2022/03/25 07:40:36;;;;;;;14.82;7.53;;;;;;;12.37;40.38;100592.03;5094258;28;20489;-69
2022/03/25 07:43:06;;;;;;;14.57;7.07;;;;;;;12.77;39.72;100591.41;5092457;28;20037;-69
2022/03/25 07:45:35;;;;;;;20.42;7.82;;;;;;;12.96;38.79;100595.75;5094210;28;20490;-68
2022/03/25 07:48:05;;;;;;;15.20;7.93;;;;;;;13.07;38.82;100586.47;5094122;28;20036;-68
2022/03/25 07:50:35;;;;;;;13.45;6.47;;;;;;;13.11;38.66;100593.28;5093721;28;20052;-68
2022/03/25 07:53:06;;;;;;;14.93;7.38;;;;;;;13.32;38.33;100588.22;5101852;28;20131;-68
2022/03/25 07:55:36;;;;;;;16.65;7.10;;;;;;;13.36;38.70;100595.06;5108982;28;20568;-68
2022/03/25 07:58:05;;;;;;;14.13;6.90;;;;;;;13.57;38.03;100594.28;5114478;28;20047;-68
2022/03/25 08:00:39;;;;;;;13.77;7.22;;;;;;;13.75;37.60;100596.03;5113949;28;20291;-68
2022/03/25 08:03:08;;;;;;;15.93;7.20;;;;;;;14.01;37.17;100586.63;5113503;28;20130;-68
2022/03/25 08:05:38;;;;;;;;;;;;;;;14.37;37.57;100591.75;5113158;28;20061;-68
2022/03/25 08:08:09;;;;;;;14.45;7.50;;;;;;;14.50;37.09;100590.00;5114293;28;19949;-68
2022/03/25 08:10:41;;;;;;;18.40;7.18;;;;;;;14.58;37.17;100596.84;5109689;28;20100;-69
2022/03/25 08:13:11;;;;;;;14.82;7.38;;;;;;;14.80;36.63;100592.53;5113856;28;20059;-68
2022/03/25 08:15:40;;;;;;;13.80;6.80;;;;;;;14.96;36.29;100589.03;5113894;28;20044;-69
2022/03/25 08:18:11;;;;;;;15.13;7.82;;;;;;;14.82;36.04;100595.06;5113799;28;20051;-69
2022/03/25 08:20:42;;;;;;;12.82;6.43;;;;;;;14.89;36.21;100587.34;5113794;28;20081;-68
2022/03/25 08:27:48;;;;;;;18.15;7.75;;;;;;;15.19;36.28;100591.47;5114065;28;20050;-68
2022/03/25 08:28:42;;;;;;;13.73;6.93;;;;;;;15.51;35.60;100588.78;5114032;28;20512;-68
2022/03/25 08:31:34;;;;;;;13.18;6.70;;;;;;;15.79;34.90;100586.00;5113802;28;20126;-68
2022/03/25 08:34:07;;;;;;;11.68;6.18;;;;;;;16.10;34.97;100592.63;5105293;28;20393;-69
2022/03/25 08:36:36;;;;;;;12.00;5.85;;;;;;;16.12;33.21;100596.91;5106511;28;20044;-68
2022/03/25 08:39:06;;;;;;;6.75;3.35;;;;;;;16.36;32.96;100592.41;5114101;28;20075;-68
2022/03/25 08:41:35;;;;;;;13.05;4.78;;;;;;;16.41;31.98;100593.19;5110711;28;20065;-68
2022/03/25 08:44:06;;;;;;;8.67;4.40;;;;;;;16.53;31.97;100592.25;5113715;28;20127;-68
2022/03/25 08:46:36;;;;;;;10.50;4.90;;;;;;;16.74;31.97;100592.03;5113415;28;20138;-68
2022/03/25 08:49:11;;;;;;;13.07;4.90;;;;;;;16.81;32.21;100588.50;5112593;28;20108;-68
2022/03/25 08:51:41;;;;;;;9.93;5.15;;;;;;;16.80;32.01;100597.09;5113558;28;20081;-68
2022/03/25 08:54:11;;;;;;;;;;;;;;;17.07;31.67;100591.63;5113896;28;20445;-68
2022/03/25 08:56:40;;;;;;;10.90;4.90;;;;;;;17.18;31.34;100579.44;5106339;28;19920;-68
2022/03/25 08:59:09;;;;;;;10.50;5.07;;;;;;;17.25;31.48;100582.81;5093318;28;20044;-70
2022/03/25 09:01:38;;;;;;;9.70;4.93;;;;;;;17.38;31.87;100580.03;5094778;28;20036;-68
2022/03/25 09:04:08;;;;;;;9.17;4.90;;;;;;;17.37;31.46;100583.47;5093242;28;20296;-68
2022/03/25 09:06:37;;;;;;;14.60;5.45;;;;;;;17.25;31.42;100578.47;5093000;28;20040;-68
2022/03/25 09:09:06;;;;;;;12.27;5.65;;;;;;;16.98;31.43;100588.31;5093023;28;20051;-68
2022/03/25 09:11:37;;;;;;;15.27;5.10;;;;;;;17.42;31.65;100579.09;5093066;28;20132;-68
2022/03/25 09:14:06;;;;;;;11.75;5.40;;;;;;;17.41;30.91;100582.56;5095566;28;20052;-68
2022/03/25 09:16:35;;;;;;;9.80;5.27;;;;;;;17.27;30.97;100574.16;5096978;28;20044;-68
2022/03/25 09:19:04;;;;;;;10.82;5.03;;;;;;;17.61;32.21;100584.03;5096736;28;20040;-68
2022/03/25 09:21:33;;;;;;;13.10;5.47;;;;;;;17.91;31.18;100578.41;5096962;28;20131;-68
2022/03/25 09:24:02;;;;;;;11.60;5.73;;;;;;;17.72;30.88;100572.66;5096471;28;20283;-68
2022/03/25 09:26:31;;;;;;;10.07;5.43;;;;;;;17.89;30.70;100570.69;5096771;28;20040;-68
2022/03/25 09:29:01;;;;;;;14.50;5.27;;;;;;;17.85;30.91;100573.34;5096361;28;20044;-68
2022/03/25 09:31:31;;;;;;;12.20;5.78;;;;;;;17.95;30.56;100565.41;5096487;28;20052;-68
2022/03/25 09:36:49;;;;;;;25.25;18.65;;;;;;;18.18;30.24;100572.78;5098058;28;20105;-68
2022/03/25 09:39:18;;;;;;;12.50;6.23;;;;;;;18.06;29.88;100560.94;5109787;28;20042;-68
2022/03/25 09:41:47;;;;;;;8.10;4.80;;;;;;;18.19;30.26;100569.28;5116561;28;20040;-68
2022/03/25 09:44:18;;;;;;;9.02;5.00;;;;;;;18.39;30.07;100562.06;5116888;28;20046;-68
2022/03/25 09:46:50;;;;;;;11.98;5.20;;;;;;;18.59;30.19;100553.94;5115876;28;20047;-69
2022/03/25 09:49:20;;;;;;;10.63;5.38;;;;;;;18.66;29.57;100563.28;5107206;28;20044;-68
2022/03/25 09:51:48;;;;;;;;;;;;;;;18.85;29.83;100572.41;5096464;28;20040;-68
2022/03/25 09:54:18;;;;;;;11.52;5.53;;;;;;;18.70;29.56;100539.94;5095250;28;20366;-68
2022/03/25 09:56:48;;;;;;;11.50;5.78;;;;;;;18.88;29.25;100562.00;5095974;28;20051;-68
2022/03/25 09:59:18;;;;;;;;;;;;;;;18.98;29.59;100552.31;5096574;28;20039;-68
2022/03/25 10:01:48;;;;;;;10.50;5.05;;;;;;;19.30;30.21;100557.63;5095422;28;19920;-68
2022/03/25 10:04:39;;;;;;;10.20;4.93;;;;;;;19.32;29.94;100554.13;5095745;28;20516;-68
2022/03/25 10:07:19;;;;;;;8.82;4.75;;;;;;;19.48;29.01;100546.91;5095711;28;20067;-68
2022/03/25 10:09:50;;;;;;;8.90;4.90;;;;;;;19.56;28.75;100547.56;5096085;28;20095;-68
2022/03/25 10:12:26;;;;;;;10.18;5.15;;;;;;;19.91;29.38;100547.56;5095786;28;20384;-69
2022/03/25 10:17:58;;;;;;;10.88;5.13;;;;;;;19.68;28.41;100542.09;5131894;27;20387;-68
2022/03/25 10:20:29;;;;;;;14.15;5.55;;;;;;;20.04;28.60;100538.59;5117369;27;20436;-69
2022/03/25 10:23:04;;;;;;;11.95;5.30;;;;;;;19.86;29.17;100546.84;5117959;28;20052;-69
2022/03/25 10:25:45;;;;;;;12.00;5.35;;;;;;;20.42;28.58;100536.78;5091140;28;20533;-69
2022/03/25 10:28:27;;;;;;;11.48;4.97;;;;;;;20.17;28.36;100535.69;5091016;28;20397;-68
2022/03/25 10:30:59;;;;;;;9.32;5.32;;;;;;;20.72;27.86;100541.09;5091109;28;20105;-69
2022/03/25 10:33:32;;;;;;;8.43;5.20;;;;;;;21.09;27.75;100528.78;5096460;28;20536;-69
2022/03/25 10:36:04;;;;;;;10.23;4.53;;;;;;;20.52;27.39;100533.00;5106951;28;20512;-69
2022/03/25 10:38:57;;;;;;;9.75;4.57;;;;;;;20.80;28.64;100526.19;5111213;28;20039;-69
2022/03/25 10:41:36;;;;;;;8.65;4.18;;;;;;;20.22;27.21;100528.63;5104499;28;20036;-68
2022/03/25 10:44:06;;;;;;;10.48;4.40;;;;;;;20.79;27.71;100511.50;5117739;28;20053;-69
2022/03/25 10:46:39;;;;;;;9.88;4.60;;;;;;;20.65;26.92;100518.81;5125048;27;20409;-69
2022/03/25 10:49:12;;;;;;;11.02;5.05;;;;;;;20.18;28.49;100521.84;5110843;28;20105;-68
2022/03/25 10:51:43;;;;;;;11.48;5.13;;;;;;;20.66;27.59;100504.94;5090435;28;20543;-68
2022/03/25 10:54:13;;;;;;;9.63;4.63;;;;;;;20.11;27.61;100515.13;5090353;28;20482;-68
2022/03/25 10:56:47;;;;;;;9.93;4.63;;;;;;;20.43;28.06;100515.13;5090557;28;20393;-69
2022/03/25 10:59:24;;;;;;;9.65;4.80;;;;;;;20.79;27.26;100508.88;5090532;28;20498;-69
2022/03/25 11:01:56;;;;;;;8.77;4.70;;;;;;;21.03;27.51;100505.56;5089412;28;20063;-69
2022/03/25 11:04:28;;;;;;;8.65;4.25;;;;;;;21.40;27.57;100499.28;5090169;28;20048;-68
2022/03/25 11:06:58;;;;;;;8.80;4.68;;;;;;;20.77;26.93;100497.72;5090168;28;20048;-69
2022/03/25 11:09:27;;;;;;;7.60;4.05;;;;;;;20.48;27.19;100490.75;5090375;28;20055;-69
2022/03/25 11:11:59;;;;;;;9.85;4.43;;;;;;;21.30;27.58;100484.00;5102581;28;20044;-69
2022/03/25 11:14:28;;;;;;;11.35;4.75;;;;;;;21.79;27.53;100493.63;5110287;28;20047;-69
2022/03/25 11:16:59;;;;;;;9.53;4.63;;;;;;;22.13;28.02;100488.16;5108606;28;20055;-69
2022/03/25 11:19:30;;;;;;;8.23;4.30;;;;;;;21.76;27.64;100488.50;5110324;28;20276;-69
2022/03/25 11:21:59;;;;;;;9.45;4.38;;;;;;;22.05;27.51;100477.19;5101614;28;20122;-69
2022/03/25 11:24:32;;;;;;;8.83;4.07;;;;;;;22.13;27.07;100487.28;5089774;28;20071;-69
2022/03/25 11:27:06;;;;;;;9.60;4.20;;;;;;;21.98;27.48;100475.66;5096980;28;20047;-68
2022/03/25 11:29:37;;;;;;;9.48;4.28;;;;;;;22.17;27.22;100479.31;5096310;28;20118;-68
2022/03/25 11:32:10;;;;;;;10.07;4.32;;;;;;;21.90;26.00;100477.69;5096783;28;20155;-68
2022/03/25 11:34:47;;;;;;;8.52;3.67;;;;;;;21.46;25.69;100470.50;5096653;28;20071;-68
2022/03/25 11:37:22;;;;;;;6.50;4.00;;;;;;;22.25;27.27;100472.09;5096286;28;20047;-68
2022/03/25 11:40:16;;;;;;;8.40;3.60;;;;;;;22.65;26.71;100469.78;5096925;28;20094;-68
2022/03/25 11:42:46;;;;;;;6.00;3.40;;;;;;;22.34;25.53;100466.56;5096270;28;20044;-68
2022/03/25 11:45:36;;;;;;;6.32;3.05;;;;;;;22.38;25.83;100470.78;5096471;28;20490;-68